createdAt,value
2022-10-28T00:02:33.383Z,56.36
2022-10-28T00:09:21.394Z,56.86
2022-10-28T00:16:14.162Z,56.64
2022-10-28T00:22:59.561Z,56.16
2022-10-28T00:29:47.550Z,56.16
2022-10-28T00:36:35.275Z,56.30
2022-10-28T00:43:35.599Z,56.46
2022-10-28T00:50:46.716Z,56.50
2022-10-28T00:57:37.806Z,56.67
2022-10-28T01:04:24.605Z,56.64
2022-10-28T01:11:30.339Z,56.88
2022-10-28T01:18:28.649Z,56.99
2022-10-28T01:25:51.368Z,56.97
2022-10-28T01:32:54.293Z,56.94
2022-10-28T01:39:51.089Z,57.47
2022-10-28T01:46:42.114Z,57.03
2022-10-28T01:53:36.742Z,57.50
2022-10-28T02:00:22.487Z,57.11
2022-10-28T02:07:08.506Z,57.07
2022-10-28T02:14:09.057Z,57.08
2022-10-28T02:20:58.785Z,57.37
2022-10-28T02:27:52.112Z,57.21
2022-10-28T02:34:47.061Z,57.57
2022-10-28T02:41:39.469Z,57.59
2022-10-28T03:02:15.952Z,57.32
2022-10-28T03:09:02.141Z,57.28
2022-10-28T03:15:47.449Z,57.60
2022-10-28T03:22:35.453Z,57.92
2022-10-28T03:29:21.130Z,57.64
2022-10-28T03:36:07.873Z,57.71
2022-10-28T03:42:56.269Z,57.86
2022-10-28T03:49:41.763Z,58.20
2022-10-28T03:56:27.236Z,58.11
2022-10-28T04:03:15.457Z,58.37
2022-10-28T04:10:00.956Z,58.03
2022-10-28T04:16:46.901Z,58.39
2022-10-28T04:23:34.877Z,58.19
2022-10-28T04:30:22.369Z,58.40
2022-10-28T04:37:07.738Z,58.44
2022-10-28T04:43:56.378Z,58.83
2022-10-28T04:50:42.640Z,58.68
2022-10-28T04:57:30.632Z,58.15
2022-10-28T05:04:18.618Z,58.13
2022-10-28T05:11:04.272Z,58.42
2022-10-28T05:17:51.607Z,58.14
2022-10-28T05:24:39.828Z,58.02
2022-10-28T05:31:25.230Z,57.79
2022-10-28T05:38:10.862Z,57.76
2022-10-28T05:44:58.825Z,58.07
2022-10-28T05:51:44.280Z,57.38
2022-10-28T05:58:29.778Z,57.13
2022-10-28T06:05:18.137Z,57.63
2022-10-28T06:12:02.205Z,57.97
2022-10-28T06:18:47.659Z,57.81
2022-10-28T06:25:35.765Z,58.04
2022-10-28T06:32:21.126Z,58.30
2022-10-28T06:39:07.335Z,57.85
2022-10-28T06:45:55.989Z,58.27
2022-10-28T06:52:42.910Z,58.14
2022-10-28T06:59:28.343Z,58.43
2022-10-28T07:06:16.483Z,58.53
2022-10-28T07:13:02.204Z,58.39
2022-10-28T07:19:47.534Z,58.70
2022-10-28T07:26:35.472Z,59.10
2022-10-28T07:33:20.902Z,58.79
2022-10-28T07:40:06.629Z,58.62
2022-10-28T07:46:57.950Z,58.97
2022-10-28T07:53:44.728Z,58.78
2022-10-28T08:00:30.098Z,58.84
2022-10-28T08:07:18.590Z,58.63
2022-10-28T08:14:05.408Z,58.62
2022-10-28T08:20:51.053Z,58.62
2022-10-28T08:27:40.563Z,58.88
2022-10-28T08:34:29.810Z,58.75
2022-10-28T08:41:33.801Z,58.89
2022-10-28T08:48:31.387Z,58.94
2022-10-28T08:55:21.833Z,58.46
2022-10-28T09:02:21.755Z,58.52
2022-10-28T09:09:12.224Z,58.39
2022-10-28T09:16:09.333Z,58.44
2022-10-28T09:23:00.907Z,58.09
2022-10-28T09:30:05.029Z,58.28
2022-10-28T09:36:56.402Z,58.57
2022-10-28T09:43:49.026Z,58.24
2022-10-28T09:50:37.296Z,58.06
2022-10-28T09:57:23.414Z,57.78
2022-10-28T10:04:21.459Z,57.67
2022-10-28T10:11:19.498Z,57.91
2022-10-28T10:18:08.332Z,57.47
2022-10-28T10:24:53.695Z,57.67
2022-10-28T10:31:41.692Z,58.27
2022-10-28T10:38:27.400Z,58.14
2022-10-28T10:45:27.583Z,57.63
2022-10-28T10:52:26.214Z,57.53
2022-10-28T10:59:25.447Z,56.26
2022-10-28T11:06:30.011Z,56.26
2022-10-28T11:13:29.251Z,56.03
2022-10-28T11:20:29.932Z,55.74
2022-10-28T11:27:29.641Z,55.45
2022-10-28T11:34:46.717Z,55.23
2022-10-28T11:41:45.140Z,54.60
2022-10-28T11:48:49.419Z,54.13
2022-10-28T11:55:44.308Z,53.35
2022-10-28T12:02:53.860Z,53.22
2022-10-28T12:10:00.098Z,52.49
2022-10-28T12:16:58.528Z,52.74
2022-10-28T12:23:46.217Z,51.45
2022-10-28T12:30:34.393Z,52.04
2022-10-28T12:37:26.919Z,51.75
2022-10-28T12:44:15.865Z,51.97
2022-10-28T12:51:12.262Z,51.37
2022-10-28T12:58:07.093Z,50.39
2022-10-28T13:04:53.349Z,50.03
2022-10-28T13:12:17.539Z,50.68
2022-10-28T13:19:32.037Z,50.12
2022-10-28T13:26:27.205Z,49.77
2022-10-28T13:33:22.671Z,50.06
2022-10-28T13:40:27.780Z,49.93
2022-10-28T13:47:33.091Z,50.37
2022-10-28T13:54:30.849Z,50.05
2022-10-28T14:02:02.293Z,49.95
2022-10-28T14:09:00.809Z,49.48
2022-10-28T14:15:48.242Z,49.22
2022-10-28T14:22:39.505Z,49.10
2022-10-28T14:29:32.466Z,48.90
2022-10-28T14:36:33.104Z,48.96
2022-10-28T14:43:49.779Z,48.84
2022-10-28T14:50:42.287Z,49.14
2022-10-28T14:57:34.184Z,49.06
2022-10-28T15:04:24.328Z,49.12
2022-10-28T15:11:09.961Z,49.40
2022-10-28T15:17:56.555Z,49.61
2022-10-28T15:24:47.253Z,49.80
2022-10-28T15:31:32.853Z,50.07
2022-10-28T15:38:41.008Z,50.19
2022-10-28T15:45:32.248Z,49.81
2022-10-28T15:52:43.240Z,49.91
2022-10-28T15:59:29.872Z,50.28
2022-10-28T16:06:31.734Z,50.34
2022-10-28T16:13:27.361Z,49.55
2022-10-28T16:20:18.988Z,49.40
2022-10-28T16:27:24.652Z,49.62
2022-10-28T16:34:11.820Z,49.22
2022-10-28T16:40:58.548Z,49.08
2022-10-28T16:47:46.570Z,49.26
2022-10-28T16:54:31.908Z,49.71
2022-10-28T17:01:20.950Z,49.54
2022-10-28T17:08:13.046Z,49.58
2022-10-28T17:14:58.514Z,49.86
2022-10-28T17:21:45.460Z,49.23
2022-10-28T17:28:33.401Z,49.73
2022-10-28T17:35:19.068Z,49.27
2022-10-28T17:42:06.491Z,49.04
2022-10-28T17:48:54.507Z,48.94
2022-10-28T17:55:42.159Z,49.05
2022-10-28T18:02:27.702Z,49.27
2022-10-28T18:09:17.028Z,48.85
2022-10-28T18:16:08.007Z,48.87
2022-10-28T18:22:53.528Z,49.62
2022-10-28T18:29:41.653Z,49.93
2022-10-28T18:36:28.939Z,50.38
2022-10-28T18:43:14.684Z,50.62
2022-10-28T18:50:02.848Z,50.61
2022-10-28T18:56:49.190Z,50.56
2022-10-28T19:03:36.058Z,50.54
2022-10-28T19:10:24.042Z,50.40
2022-10-28T19:17:09.479Z,50.11
2022-10-28T19:23:55.264Z,50.50
2022-10-28T19:30:43.263Z,50.49
2022-10-28T19:37:28.625Z,50.04
2022-10-28T19:44:13.997Z,50.38
2022-10-28T19:51:02.140Z,49.92
2022-10-28T19:57:50.318Z,50.35
2022-10-28T20:04:38.225Z,49.97
2022-10-28T20:11:29.491Z,50.10
2022-10-28T20:18:14.920Z,50.61
2022-10-28T20:25:02.275Z,50.45
2022-10-28T20:31:50.923Z,50.59
2022-10-28T20:38:36.633Z,50.91
2022-10-28T20:45:22.038Z,51.14
2022-10-28T20:52:10.092Z,50.95
2022-10-28T20:58:57.803Z,51.68
2022-10-28T21:05:44.442Z,51.64
2022-10-28T21:12:32.380Z,51.48
2022-10-28T21:19:17.819Z,51.42
2022-10-28T21:26:06.147Z,50.79
2022-10-28T21:32:54.641Z,50.78
2022-10-28T21:39:40.219Z,50.76
2022-10-28T21:46:26.911Z,50.87
2022-10-28T21:53:14.861Z,50.77
2022-10-28T22:00:00.342Z,50.69
2022-10-28T22:13:36.222Z,50.62
2022-10-28T22:20:21.769Z,50.15
2022-10-28T22:27:07.309Z,50.38
2022-10-28T22:33:57.660Z,50.37
2022-10-28T22:40:43.041Z,50.30
2022-10-28T22:47:28.405Z,49.99
2022-10-28T22:54:16.392Z,50.23
2022-10-28T23:01:10.242Z,50.21
2022-10-28T23:07:59.423Z,50.37
2022-10-28T23:14:47.510Z,50.40
2022-10-28T23:21:32.861Z,50.07
2022-10-28T23:28:18.220Z,50.59
2022-10-28T23:35:06.965Z,50.40
2022-10-28T23:41:52.580Z,50.75
2022-10-28T23:48:38.185Z,50.26
2022-10-28T23:55:26.343Z,50.41
